createdAt,value
2023-01-19T00:04:25.028Z,17.17
2023-01-19T00:09:46.714Z,12.67
2023-01-19T00:15:09.070Z,13.40
2023-01-19T00:20:32.651Z,11.87
2023-01-19T00:25:54.441Z,14.43
2023-01-19T00:31:16.263Z,14.30
2023-01-19T00:36:37.992Z,16.77
2023-01-19T00:42:18.343Z,12.23
2023-01-19T00:47:40.310Z,15.07
2023-01-19T00:53:02.810Z,15.60
2023-01-19T00:58:24.673Z,11.70
2023-01-19T01:03:46.367Z,19.87
2023-01-19T01:09:11.951Z,13.37
2023-01-19T01:14:33.956Z,12.77
2023-01-19T01:19:55.626Z,13.23
2023-01-19T01:25:19.338Z,13.67
2023-01-19T01:30:41.117Z,9.67
2023-01-19T01:36:03.136Z,15.17
2023-01-19T01:41:26.645Z,14.10
2023-01-19T01:46:48.471Z,14.23
2023-01-19T01:52:11.264Z,11.83
2023-01-19T01:57:36.948Z,12.60
2023-01-19T02:03:00.543Z,17.00
2023-01-19T02:08:50.847Z,15.90
2023-01-19T02:14:12.531Z,15.17
2023-01-19T02:19:41.758Z,15.83
2023-01-19T02:25:05.222Z,11.70
2023-01-19T02:30:27.789Z,12.67
2023-01-19T02:35:51.947Z,11.57
2023-01-19T02:41:19.531Z,9.83
2023-01-19T02:46:41.687Z,11.80
2023-01-19T02:52:04.275Z,15.70
2023-01-19T02:57:43.563Z,10.97
2023-01-19T03:03:37.113Z,10.77
2023-01-19T03:09:15.430Z,11.70
2023-01-19T03:14:46.167Z,12.73
2023-01-19T03:20:08.850Z,10.50
2023-01-19T03:25:35.134Z,11.97
2023-01-19T03:31:01.822Z,11.47
2023-01-19T03:36:30.691Z,14.00
2023-01-19T03:41:57.485Z,8.90
2023-01-19T03:47:20.367Z,10.97
2023-01-19T03:52:42.367Z,10.17
2023-01-19T03:58:04.299Z,12.10
2023-01-19T04:03:26.006Z,12.07
2023-01-19T04:08:49.666Z,10.47
2023-01-19T04:14:11.402Z,10.20
2023-01-19T04:19:33.097Z,13.40
2023-01-19T04:24:55.600Z,8.97
2023-01-19T04:30:17.473Z,11.50
2023-01-19T04:35:39.229Z,11.33
2023-01-19T04:41:00.963Z,11.30
2023-01-19T04:46:22.735Z,14.87
2023-01-19T04:51:44.454Z,11.87
2023-01-19T04:57:06.161Z,14.80
2023-01-19T05:02:28.007Z,10.17
2023-01-19T05:07:49.727Z,11.93
2023-01-19T05:13:11.433Z,12.00
2023-01-19T05:18:36.287Z,19.87
2023-01-19T05:23:57.993Z,15.10
2023-01-19T05:29:19.722Z,14.20
2023-01-19T05:34:41.422Z,12.00
2023-01-19T05:40:03.370Z,11.77
2023-01-19T05:45:25.074Z,13.33
2023-01-19T05:50:49.345Z,15.63
2023-01-19T05:56:11.570Z,17.23
2023-01-19T06:01:36.498Z,18.33
2023-01-19T06:06:59.193Z,12.13
2023-01-19T06:12:20.915Z,14.47
2023-01-19T06:17:42.933Z,14.13
2023-01-19T06:23:04.737Z,11.33
2023-01-19T06:28:26.650Z,12.33
2023-01-19T06:33:48.417Z,11.60
2023-01-19T06:39:10.590Z,14.83
2023-01-19T06:44:32.312Z,13.70
2023-01-19T06:49:54.048Z,15.40
2023-01-19T06:55:16.182Z,12.50
2023-01-19T07:00:38.495Z,14.13
2023-01-19T07:06:02.528Z,13.90
2023-01-19T07:11:29.811Z,11.23
2023-01-19T07:16:54.894Z,9.63
2023-01-19T07:22:16.929Z,10.10
2023-01-19T07:27:38.756Z,12.13
2023-01-19T07:33:01.141Z,17.23
2023-01-19T07:38:24.169Z,11.33
2023-01-19T07:43:45.973Z,11.30
2023-01-19T07:49:07.937Z,10.27
2023-01-19T07:54:29.672Z,10.00
2023-01-19T07:59:51.378Z,12.27
2023-01-19T08:05:13.295Z,14.37
2023-01-19T08:10:35.069Z,17.87
2023-01-19T08:15:56.857Z,11.53
2023-01-19T08:21:18.741Z,11.43
2023-01-19T08:26:40.617Z,12.67
2023-01-19T08:32:03.102Z,11.13
2023-01-19T08:37:24.915Z,11.23
2023-01-19T08:42:46.614Z,17.17
2023-01-19T08:48:08.617Z,11.83
2023-01-19T08:53:30.325Z,12.53
2023-01-19T08:59:07.821Z,9.27
2023-01-19T09:04:30.677Z,7.93
2023-01-19T09:09:52.399Z,13.33
2023-01-19T09:15:14.103Z,13.70
2023-01-19T09:20:38.497Z,8.67
2023-01-19T09:26:02.963Z,6.67
2023-01-19T09:31:24.919Z,10.77
2023-01-19T09:36:47.229Z,11.10
2023-01-19T09:42:32.285Z,8.13
2023-01-19T09:47:55.449Z,10.47
2023-01-19T09:53:32.821Z,7.20
2023-01-19T09:58:54.542Z,14.30
2023-01-19T10:04:30.411Z,8.07
2023-01-19T10:10:19.564Z,12.77
2023-01-19T10:15:47.065Z,7.23
2023-01-19T10:21:10.498Z,8.27
2023-01-19T10:26:37.541Z,11.40
2023-01-19T10:32:08.034Z,8.60
2023-01-19T10:37:38.548Z,14.27
2023-01-19T10:43:01.179Z,10.50
2023-01-19T10:48:23.878Z,10.13
2023-01-19T10:53:59.570Z,8.70
2023-01-19T10:59:45.135Z,15.10
2023-01-19T11:05:28.119Z,13.30
2023-01-19T11:11:02.396Z,15.93
2023-01-19T11:16:34.695Z,11.20
2023-01-19T11:22:21.499Z,8.03
2023-01-19T11:27:51.290Z,13.77
2023-01-19T11:33:24.671Z,11.77
2023-01-19T11:38:50.486Z,8.07
2023-01-19T11:44:18.136Z,7.10
2023-01-19T11:50:00.816Z,12.33
2023-01-19T11:55:37.871Z,10.73
2023-01-19T12:01:30.675Z,11.50
2023-01-19T12:06:55.697Z,7.73
2023-01-19T12:12:28.800Z,11.60
2023-01-19T12:17:54.129Z,10.67
2023-01-19T12:23:37.353Z,11.90
2023-01-19T12:29:13.182Z,9.27
2023-01-19T12:35:01.616Z,17.73
2023-01-19T12:40:27.519Z,6.57
2023-01-19T12:45:49.614Z,16.73
2023-01-19T12:51:23.323Z,9.07
2023-01-19T12:56:45.310Z,9.57
2023-01-19T13:02:25.535Z,15.47
2023-01-19T13:08:02.434Z,6.43
2023-01-19T13:13:24.905Z,9.73
2023-01-19T13:18:52.428Z,12.67
2023-01-19T13:24:22.329Z,12.43
2023-01-19T13:29:44.387Z,10.33
2023-01-19T13:35:13.073Z,8.63
2023-01-19T13:40:38.953Z,11.60
2023-01-19T13:46:01.421Z,11.17
2023-01-19T13:51:23.716Z,8.27
2023-01-19T13:56:50.211Z,11.87
2023-01-19T14:02:13.932Z,11.03
2023-01-19T14:07:35.700Z,10.13
2023-01-19T14:13:15.675Z,10.23
2023-01-19T14:18:37.399Z,8.33
2023-01-19T14:24:17.030Z,9.43
2023-01-19T14:29:38.849Z,10.17
2023-01-19T14:35:06.518Z,9.23
2023-01-19T14:40:29.772Z,9.30
2023-01-19T14:45:51.567Z,11.97
2023-01-19T14:51:18.872Z,9.93
2023-01-19T14:56:40.621Z,12.83
2023-01-19T15:02:02.451Z,14.27
2023-01-19T15:07:25.127Z,15.60
2023-01-19T15:12:48.151Z,16.20
2023-01-19T15:18:15.230Z,14.83
2023-01-19T15:23:36.965Z,9.77
2023-01-19T15:28:58.735Z,9.80
2023-01-19T15:34:20.527Z,11.10
2023-01-19T15:39:42.313Z,11.70
2023-01-19T15:45:36.347Z,9.73
2023-01-19T15:50:58.226Z,10.00
2023-01-19T15:56:25.944Z,13.13
2023-01-19T16:01:47.866Z,9.57
2023-01-19T16:07:09.763Z,13.43
2023-01-19T16:12:31.473Z,22.00
2023-01-19T16:17:53.252Z,11.10
2023-01-19T16:23:15.640Z,6.60
2023-01-19T16:28:37.718Z,8.57
2023-01-19T16:33:59.493Z,7.53
2023-01-19T16:39:21.788Z,12.60
2023-01-19T16:44:43.523Z,8.73
2023-01-19T16:50:05.868Z,11.77
2023-01-19T16:55:27.601Z,6.83
2023-01-19T17:00:49.518Z,9.73
2023-01-19T17:06:13.421Z,7.60
2023-01-19T17:11:36.430Z,11.20
2023-01-19T17:17:00.538Z,9.60
2023-01-19T17:22:22.393Z,15.67
2023-01-19T17:27:44.205Z,7.47
2023-01-19T17:33:06.004Z,11.53
2023-01-19T17:38:28.309Z,19.10
2023-01-19T17:43:51.368Z,13.77
2023-01-19T17:49:13.077Z,13.07
2023-01-19T17:54:34.979Z,15.07
2023-01-19T17:59:56.682Z,14.33
2023-01-19T18:05:19.196Z,13.43
2023-01-19T18:10:42.189Z,10.07
2023-01-19T18:16:07.319Z,18.30
2023-01-19T18:21:30.297Z,8.87
2023-01-19T18:26:54.240Z,9.67
2023-01-19T18:32:17.390Z,8.23
2023-01-19T18:37:39.254Z,10.43
2023-01-19T18:43:01.003Z,8.07
2023-01-19T18:48:22.910Z,8.50
2023-01-19T18:53:45.544Z,9.10
2023-01-19T18:59:07.358Z,11.20
2023-01-19T19:04:29.072Z,11.77
2023-01-19T19:09:50.838Z,11.33
2023-01-19T19:15:13.894Z,14.70
2023-01-19T19:20:38.702Z,8.93
2023-01-19T19:26:05.672Z,10.30
2023-01-19T19:31:28.133Z,8.40
2023-01-19T19:36:50.982Z,10.73
2023-01-19T19:42:12.792Z,12.53
2023-01-19T19:47:35.236Z,15.57
2023-01-19T19:52:58.760Z,13.13
2023-01-19T19:58:20.572Z,15.80
2023-01-19T20:03:42.664Z,14.20
2023-01-19T20:09:06.432Z,20.17
2023-01-19T20:14:28.148Z,18.60
2023-01-19T20:19:49.969Z,19.80
2023-01-19T20:25:11.746Z,19.17
2023-01-19T20:30:33.550Z,21.73
2023-01-19T20:35:55.378Z,21.47
2023-01-19T20:41:18.266Z,22.50
2023-01-19T20:46:40.540Z,27.37
2023-01-19T20:52:02.537Z,25.23
2023-01-19T20:57:24.299Z,26.83
2023-01-19T21:02:46.226Z,24.27
2023-01-19T21:08:08.901Z,21.90
2023-01-19T21:13:31.599Z,28.00
2023-01-19T21:18:53.891Z,20.70
2023-01-19T21:24:15.956Z,25.40
2023-01-19T21:29:37.676Z,24.47
2023-01-19T21:34:59.390Z,22.47
2023-01-19T21:40:21.193Z,20.03
2023-01-19T21:45:43.229Z,21.20
2023-01-19T21:51:05.214Z,19.27
2023-01-19T21:56:28.621Z,24.67
2023-01-19T22:01:50.598Z,17.87
2023-01-19T22:07:12.487Z,20.50
2023-01-19T22:12:34.231Z,24.03
2023-01-19T22:17:55.959Z,26.80
2023-01-19T22:23:17.713Z,20.27
2023-01-19T22:28:39.498Z,24.17
2023-01-19T22:34:01.300Z,17.23
2023-01-19T22:39:23.011Z,19.60
2023-01-19T22:44:45.806Z,20.50
2023-01-19T22:50:08.465Z,21.77
2023-01-19T22:55:30.623Z,19.80
2023-01-19T23:00:52.416Z,16.97
2023-01-19T23:06:19.852Z,18.20
2023-01-19T23:11:44.096Z,18.93
2023-01-19T23:17:06.011Z,22.40
2023-01-19T23:22:27.736Z,18.73
2023-01-19T23:27:49.471Z,20.83
2023-01-19T23:33:11.186Z,20.13
2023-01-19T23:38:32.914Z,18.97
2023-01-19T23:43:54.973Z,19.93
2023-01-19T23:49:18.082Z,20.43
2023-01-19T23:54:39.801Z,20.83
